createdAt,value
2018-02-15T00:00:08.706Z,23.12
2018-02-15T00:02:35.377Z,22.55
2018-02-15T00:05:02.009Z,23.17
2018-02-15T00:07:28.654Z,22.35
2018-02-15T00:09:55.264Z,31.23
2018-02-15T00:12:21.925Z,28.35
2018-02-15T00:14:48.540Z,25.02
2018-02-15T00:17:15.205Z,26.80
2018-02-15T00:19:41.833Z,28.35
2018-02-15T00:22:08.441Z,26.55
2018-02-15T00:24:35.122Z,24.85
2018-02-15T00:27:01.865Z,24.10
2018-02-15T00:29:28.486Z,23.05
2018-02-15T00:31:55.098Z,32.88
2018-02-15T00:34:21.785Z,22.62
2018-02-15T00:36:48.396Z,25.23
2018-02-15T00:39:15.015Z,24.65
2018-02-15T00:41:41.653Z,22.60
2018-02-15T00:44:08.337Z,23.10
2018-02-15T00:46:34.978Z,24.55
2018-02-15T00:49:01.721Z,22.10
2018-02-15T00:51:28.333Z,23.55
2018-02-15T00:53:54.946Z,23.12
2018-02-15T00:56:21.577Z,25.88
2018-02-15T00:58:48.189Z,26.05
2018-02-15T01:01:14.803Z,23.75
2018-02-15T01:03:41.537Z,26.50
2018-02-15T01:06:08.273Z,21.90
2018-02-15T02:24:09.581Z,35.30
2018-02-15T02:26:36.193Z,26.50
2018-02-15T02:53:25.171Z,31.52
2018-02-15T02:55:51.782Z,29.20
2018-02-15T03:54:21.307Z,35.40
2018-02-15T03:56:47.985Z,31.48
2018-02-15T03:59:14.595Z,40.17
2018-02-15T04:01:41.326Z,31.08
2018-02-15T04:04:07.971Z,31.08
2018-02-15T04:06:34.578Z,39.70
2018-02-15T04:09:01.245Z,36.10
2018-02-15T04:11:27.922Z,31.48
2018-02-15T04:13:54.529Z,30.42
2018-02-15T04:16:21.262Z,31.25
2018-02-15T04:18:47.943Z,40.38
2018-02-15T04:26:07.009Z,32.47
2018-02-15T04:28:33.626Z,34.17
2018-02-15T04:31:00.251Z,30.83
2018-02-15T04:33:26.877Z,33.72
2018-02-15T04:35:53.558Z,31.52
2018-02-15T04:38:20.193Z,34.30
2018-02-15T04:40:46.805Z,35.05
2018-02-15T04:43:13.473Z,31.33
2018-02-15T04:45:40.081Z,37.22
2018-02-15T04:48:06.754Z,35.75
2018-02-15T04:50:33.361Z,31.87
2018-02-15T04:52:59.973Z,32.70
2018-02-15T04:55:26.669Z,42.15
2018-02-15T04:57:53.305Z,30.02
2018-02-15T05:00:19.917Z,28.50
2018-02-15T05:02:46.542Z,36.08
2018-02-15T05:05:13.158Z,28.48
2018-02-15T05:07:39.785Z,40.15
2018-02-15T05:10:06.402Z,33.20
2018-02-15T05:12:33.042Z,33.40
2018-02-15T05:14:59.674Z,37.08
2018-02-15T05:17:26.316Z,35.20
2018-02-15T05:19:52.930Z,32.55
2018-02-15T05:22:19.565Z,30.12
2018-02-15T05:24:46.173Z,34.05
2018-02-15T05:27:12.914Z,30.27
2018-02-15T05:29:39.551Z,34.65
2018-02-15T05:32:06.161Z,31.60
2018-02-15T05:34:32.793Z,36.17
2018-02-15T05:36:59.574Z,35.30
2018-02-15T05:39:26.186Z,32.67
2018-02-15T05:41:52.796Z,34.67
2018-02-15T05:44:19.445Z,37.03
2018-02-15T05:46:46.089Z,36.83
2018-02-15T05:49:12.732Z,42.75
2018-02-15T05:51:39.365Z,44.20
2018-02-15T05:54:06.014Z,40.75
2018-02-15T05:56:32.625Z,36.75
2018-02-15T05:58:59.249Z,39.17
2018-02-15T06:01:25.926Z,39.65
2018-02-15T06:03:52.560Z,35.35
2018-02-15T06:06:19.201Z,43.00
2018-02-15T06:08:45.846Z,42.62
2018-02-15T06:11:12.476Z,41.72
2018-02-15T06:13:39.093Z,44.13
2018-02-15T06:16:06.436Z,46.65
2018-02-15T06:18:33.158Z,39.75
2018-02-15T06:20:59.855Z,40.25
2018-02-15T06:23:26.538Z,44.33
2018-02-15T06:25:53.384Z,45.67
2018-02-15T06:28:20.005Z,40.42
2018-02-15T06:30:47.989Z,36.70
2018-02-15T06:33:14.772Z,37.20
2018-02-15T06:35:41.575Z,40.70
2018-02-15T06:38:09.607Z,39.35
2018-02-15T06:40:36.942Z,36.85
2018-02-15T06:43:03.733Z,39.35
2018-02-15T06:45:30.345Z,40.90
2018-02-15T06:47:56.977Z,41.08
2018-02-15T06:50:23.604Z,45.83
2018-02-15T06:52:50.215Z,38.92
2018-02-15T06:55:16.903Z,42.50
2018-02-15T06:57:43.541Z,39.03
2018-02-15T07:00:10.152Z,48.83
2018-02-15T07:02:36.817Z,38.78
2018-02-15T07:05:03.430Z,44.08
2018-02-15T07:07:30.049Z,37.17
2018-02-15T07:09:56.673Z,36.67
2018-02-15T07:12:23.289Z,40.67
2018-02-15T07:14:50.019Z,43.50
2018-02-15T07:17:16.745Z,41.85
2018-02-15T07:19:43.363Z,39.60
2018-02-15T07:22:10.033Z,42.25
2018-02-15T07:24:36.712Z,42.38
2018-02-15T07:27:03.326Z,43.05
2018-02-15T07:29:29.942Z,40.90
2018-02-15T07:31:56.570Z,45.05
2018-02-15T07:34:23.186Z,43.83
2018-02-15T07:36:49.869Z,41.40
2018-02-15T07:39:16.498Z,51.20
2018-02-15T07:41:43.145Z,44.72
2018-02-15T07:44:09.783Z,38.72
2018-02-15T07:46:36.420Z,43.25
2018-02-15T07:49:03.104Z,49.05
2018-02-15T07:51:29.704Z,41.17
2018-02-15T07:53:56.348Z,49.15
2018-02-15T07:56:22.957Z,43.58
2018-02-15T07:58:49.660Z,39.25
2018-02-15T08:01:16.365Z,41.00
2018-02-15T08:03:42.973Z,38.13
2018-02-15T08:06:09.594Z,41.50
2018-02-15T08:08:36.290Z,47.47
2018-02-15T08:11:02.958Z,39.40
2018-02-15T08:18:22.027Z,41.70
2018-02-15T08:37:52.447Z,37.35
2018-02-15T08:40:19.029Z,44.90
2018-02-15T08:42:45.651Z,36.90
2018-02-15T08:45:12.269Z,35.50
2018-02-15T08:47:38.912Z,40.78
2018-02-15T08:50:05.542Z,36.42
2018-02-15T08:52:32.166Z,37.92
2018-02-15T08:54:59.630Z,33.92
2018-02-15T08:57:26.258Z,38.42
2018-02-15T08:59:52.975Z,32.88
2018-02-15T09:02:19.685Z,36.30
2018-02-15T09:04:46.314Z,34.40
2018-02-15T09:07:12.925Z,29.40
2018-02-15T09:09:39.550Z,30.08
2018-02-15T09:12:06.170Z,32.47
2018-02-15T09:14:32.779Z,36.50
2018-02-15T09:16:59.507Z,43.78
2018-02-15T09:19:26.126Z,34.33
2018-02-15T09:21:52.734Z,34.85
2018-02-15T09:24:19.370Z,36.05
2018-02-15T09:26:46.079Z,38.60
2018-02-15T09:29:12.705Z,36.67
2018-02-15T16:31:26.286Z,33.60
2018-02-15T16:33:52.994Z,26.95
2018-02-15T16:36:19.669Z,32.85
2018-02-15T16:38:46.369Z,40.70
2018-02-15T16:41:13.108Z,37.08
2018-02-15T16:43:39.754Z,31.65
2018-02-15T16:46:06.370Z,30.35
2018-02-15T16:48:33.006Z,30.60
2018-02-15T16:50:59.626Z,34.85
2018-02-15T16:53:26.238Z,39.00
2018-02-15T16:55:52.862Z,31.17
2018-02-15T16:58:19.522Z,35.60
2018-02-15T17:00:46.222Z,37.97
2018-02-15T17:03:12.836Z,38.45
2018-02-15T17:05:39.454Z,32.83
2018-02-15T17:08:06.086Z,31.00
2018-02-15T17:10:32.700Z,39.78
2018-02-15T17:12:59.305Z,36.83
2018-02-15T17:15:25.933Z,33.47
2018-02-15T17:17:52.549Z,39.15
2018-02-15T17:20:19.188Z,37.25
2018-02-15T17:22:45.811Z,35.47
2018-02-15T17:25:12.421Z,33.22
2018-02-15T17:27:39.154Z,35.50
2018-02-15T17:30:05.769Z,39.50
2018-02-15T17:32:32.430Z,32.58
2018-02-15T17:34:59.174Z,34.90
2018-02-15T17:37:25.785Z,33.45
2018-02-15T17:39:52.491Z,47.35
2018-02-15T17:42:19.108Z,35.35
2018-02-15T17:44:45.716Z,39.85
2018-02-15T17:47:12.365Z,35.67
2018-02-15T17:49:39.111Z,32.42
2018-02-15T17:52:05.748Z,37.85
2018-02-15T17:54:32.362Z,34.58
2018-02-15T17:56:59.035Z,43.15
2018-02-15T17:59:25.654Z,44.78
2018-02-15T18:01:52.269Z,69.87
2018-02-15T18:04:18.898Z,37.15
2018-02-15T18:06:45.582Z,38.17
2018-02-15T18:09:12.194Z,36.30
2018-02-15T18:11:38.817Z,42.00
2018-02-15T18:14:05.440Z,45.78
2018-02-15T18:16:32.066Z,41.92
2018-02-15T18:18:58.685Z,36.72
2018-02-15T18:21:25.313Z,39.25
2018-02-15T18:23:51.946Z,35.38
2018-02-15T18:26:18.599Z,39.00
2018-02-15T18:28:45.245Z,38.50
2018-02-15T18:31:11.974Z,39.20
2018-02-15T18:33:38.585Z,41.35
2018-02-15T18:36:05.208Z,37.25
2018-02-15T18:38:31.828Z,39.95
2018-02-15T18:40:58.443Z,36.83
2018-02-15T18:43:25.075Z,38.45
2018-02-15T18:45:51.700Z,38.53
2018-02-15T18:48:18.308Z,41.95
2018-02-15T18:50:44.982Z,43.25
2018-02-15T18:53:11.626Z,39.08
2018-02-15T18:55:38.229Z,36.80
2018-02-15T18:58:04.900Z,37.13
2018-02-15T19:00:31.542Z,39.10
2018-02-15T19:02:58.177Z,38.95
2018-02-15T19:05:24.806Z,42.83
2018-02-15T19:07:51.457Z,38.22
2018-02-15T19:10:18.069Z,38.53
2018-02-15T19:12:44.706Z,36.95
2018-02-15T19:15:11.317Z,42.58
2018-02-15T19:17:38.022Z,41.83
2018-02-15T19:20:04.645Z,43.72
2018-02-15T19:22:31.270Z,40.17
2018-02-15T19:24:57.929Z,44.42
2018-02-15T19:27:24.541Z,43.63
2018-02-15T19:29:51.213Z,37.13
2018-02-15T19:32:17.950Z,39.95
2018-02-15T19:34:44.561Z,39.35
2018-02-15T19:37:11.174Z,42.25
2018-02-15T19:39:37.804Z,39.17
2018-02-15T19:42:04.418Z,41.17
2018-02-15T19:44:31.044Z,41.28
2018-02-15T19:46:57.653Z,74.18
2018-02-15T19:49:24.321Z,42.62
2018-02-15T19:51:50.960Z,52.35
2018-02-15T19:54:17.574Z,50.05
2018-02-15T19:56:44.237Z,44.90
2018-02-15T19:59:10.865Z,48.00
2018-02-15T20:01:37.472Z,43.15
2018-02-15T20:04:04.162Z,39.05
2018-02-15T20:06:30.882Z,41.65
2018-02-15T20:08:57.537Z,44.55
2018-02-15T20:11:24.142Z,49.55
2018-02-15T20:13:50.817Z,43.65
2018-02-15T20:16:17.429Z,42.00
2018-02-15T20:18:44.090Z,37.55
2018-02-15T20:21:10.730Z,43.03
2018-02-15T20:23:37.373Z,42.67
2018-02-15T20:26:09.526Z,39.67
2018-02-15T20:28:36.157Z,39.63
2018-02-15T20:31:02.773Z,39.65
2018-02-15T20:33:29.386Z,44.78
2018-02-15T20:35:56.009Z,43.85
2018-02-15T20:38:28.378Z,42.00
2018-02-15T20:40:55.114Z,42.47
2018-02-15T20:43:21.725Z,46.72
2018-02-15T20:45:48.354Z,44.45
2018-02-15T20:48:14.970Z,42.80
2018-02-15T20:50:47.377Z,43.38
2018-02-15T20:53:19.665Z,42.80
2018-02-15T20:55:46.288Z,44.08
2018-02-15T20:58:12.917Z,46.30
2018-02-15T21:00:39.579Z,45.92
2018-02-15T21:03:06.225Z,44.78
2018-02-15T21:05:32.854Z,44.63
2018-02-15T21:07:59.505Z,45.60
2018-02-15T21:10:26.121Z,55.12
2018-02-15T21:12:52.746Z,45.40
2018-02-15T21:15:19.469Z,46.75
2018-02-15T21:17:46.061Z,45.28
2018-02-15T21:20:12.674Z,48.87
2018-02-15T21:22:39.346Z,41.88
2018-02-15T21:25:05.981Z,44.47
2018-02-15T21:27:32.630Z,45.17
2018-02-15T21:29:59.262Z,52.50
2018-02-15T21:32:25.869Z,49.13
2018-02-15T21:34:52.487Z,50.78
2018-02-15T21:37:19.114Z,48.28
2018-02-15T21:39:45.730Z,50.90
2018-02-15T21:42:12.453Z,49.67
2018-02-15T21:44:39.066Z,49.80
2018-02-15T21:47:05.681Z,50.50
2018-02-15T21:49:32.309Z,47.08
2018-02-15T21:51:58.921Z,51.95
2018-02-15T21:54:25.629Z,47.20
2018-02-15T21:56:52.253Z,49.63
2018-02-15T21:59:18.869Z,52.75
2018-02-15T22:01:45.564Z,56.03
2018-02-15T22:04:12.209Z,49.72
2018-02-15T22:06:38.817Z,50.08
2018-02-15T22:09:05.457Z,55.20
2018-02-15T22:11:32.129Z,52.08
2018-02-15T22:13:58.741Z,59.80
2018-02-15T22:16:25.409Z,44.60
2018-02-15T22:18:52.040Z,46.40
2018-02-15T22:21:18.673Z,48.75
2018-02-15T22:23:45.346Z,46.58
2018-02-15T22:26:11.972Z,48.65
2018-02-15T22:28:38.598Z,59.45
2018-02-15T22:31:05.236Z,55.38
2018-02-15T22:33:31.870Z,51.05
2018-02-15T22:35:58.482Z,59.90
2018-02-15T22:38:25.154Z,50.65
2018-02-15T22:40:51.772Z,51.80
2018-02-15T22:43:18.434Z,51.42
2018-02-15T22:45:45.053Z,60.28
2018-02-15T22:48:11.685Z,61.63
2018-02-15T22:50:38.903Z,57.40
2018-02-15T22:53:05.596Z,57.92
2018-02-15T22:55:32.245Z,51.95
2018-02-15T22:57:58.948Z,47.88
2018-02-15T23:00:25.629Z,55.70
2018-02-15T23:02:52.241Z,58.20
2018-02-15T23:05:18.856Z,56.90
2018-02-15T23:07:45.542Z,51.03
2018-02-15T23:10:12.186Z,54.63
2018-02-15T23:12:38.798Z,54.47
2018-02-15T23:15:05.425Z,52.92
2018-02-15T23:17:32.095Z,56.90
2018-02-15T23:19:58.737Z,53.70
2018-02-15T23:22:25.371Z,60.22
2018-02-15T23:24:52.009Z,55.15
2018-02-15T23:27:18.621Z,55.15
2018-02-15T23:29:45.229Z,50.30
2018-02-15T23:32:11.856Z,53.47
2018-02-15T23:34:38.469Z,59.40
2018-02-15T23:37:05.090Z,70.70
2018-02-15T23:39:31.714Z,56.22
2018-02-15T23:41:58.326Z,61.80
2018-02-15T23:44:24.945Z,57.22
2018-02-15T23:46:51.579Z,57.03
2018-02-15T23:49:18.189Z,65.10
2018-02-15T23:51:44.833Z,60.95
2018-02-15T23:54:11.465Z,50.03
2018-02-15T23:56:38.122Z,57.50
2018-02-15T23:59:04.738Z,51.63
